sensor_id;sensor_type;location;lat;lon;timestamp;pressure;altitude;pressure_sealevel;temperature;humidity
20696;BME280;10507;52.754;13.040;2022-09-20T00:01:59;101800.31;;;7.94;100.00
20696;BME280;10507;52.754;13.040;2022-09-20T00:04:28;101814.44;;;7.96;100.00
20696;BME280;10507;52.754;13.040;2022-09-20T00:06:56;101807.41;;;7.95;100.00
20696;BME280;10507;52.754;13.040;2022-09-20T00:09:23;101808.34;;;7.92;100.00
20696;BME280;10507;52.754;13.040;2022-09-20T00:11:51;101812.78;;;7.91;100.00
20696;BME280;10507;52.754;13.040;2022-09-20T00:14:18;101815.44;;;7.91;100.00
20696;BME280;10507;52.754;13.040;2022-09-20T00:16:46;101811.88;;;7.91;100.00
20696;BME280;10507;52.754;13.040;2022-09-20T00:19:17;101807.50;;;7.90;100.00
20696;BME280;10507;52.754;13.040;2022-09-20T00:21:47;101805.69;;;7.90;100.00
20696;BME280;10507;52.754;13.040;2022-09-20T00:24:15;101789.88;;;7.84;100.00
20696;BME280;10507;52.754;13.040;2022-09-20T00:26:42;101766.88;;;7.82;100.00
20696;BME280;10507;52.754;13.040;2022-09-20T00:29:10;101762.50;;;7.79;100.00
20696;BME280;10507;52.754;13.040;2022-09-20T00:31:39;101764.28;;;7.79;100.00
20696;BME280;10507;52.754;13.040;2022-09-20T00:34:09;101768.75;;;7.78;100.00
20696;BME280;10507;52.754;13.040;2022-09-20T00:36:55;101772.31;;;7.76;100.00
20696;BME280;10507;52.754;13.040;2022-09-20T00:39:23;101772.38;;;7.74;100.00
20696;BME280;10507;52.754;13.040;2022-09-20T00:41:51;101765.34;;;7.70;100.00
20696;BME280;10507;52.754;13.040;2022-09-20T00:44:46;101769.81;;;7.68;100.00
20696;BME280;10507;52.754;13.040;2022-09-20T00:47:21;101784.88;;;7.69;100.00
20696;BME280;10507;52.754;13.040;2022-09-20T00:49:53;101793.75;;;7.68;100.00
20696;BME280;10507;52.754;13.040;2022-09-20T00:52:24;101791.16;;;7.65;100.00
20696;BME280;10507;52.754;13.040;2022-09-20T00:54:53;101807.09;;;7.65;100.00
20696;BME280;10507;52.754;13.040;2022-09-20T00:57:22;101797.38;;;7.64;100.00
20696;BME280;10507;52.754;13.040;2022-09-20T00:59:50;101810.66;;;7.64;100.00
20696;BME280;10507;52.754;13.040;2022-09-20T01:02:22;101813.31;;;7.64;100.00
20696;BME280;10507;52.754;13.040;2022-09-20T01:04:53;101810.72;;;7.61;100.00
20696;BME280;10507;52.754;13.040;2022-09-20T01:07:24;101809.00;;;7.58;100.00
20696;BME280;10507;52.754;13.040;2022-09-20T01:09:53;101820.53;;;7.57;100.00
20696;BME280;10507;52.754;13.040;2022-09-20T01:12:24;101840.84;;;7.60;100.00
20696;BME280;10507;52.754;13.040;2022-09-20T01:14:53;101846.16;;;7.61;100.00
20696;BME280;10507;52.754;13.040;2022-09-20T01:17:23;101862.09;;;7.61;100.00
20696;BME280;10507;52.754;13.040;2022-09-20T01:20:04;101874.44;;;7.65;100.00
20696;BME280;10507;52.754;13.040;2022-09-20T01:22:50;101866.44;;;7.67;100.00
20696;BME280;10507;52.754;13.040;2022-09-20T01:25:31;101874.41;;;7.67;100.00
20696;BME280;10507;52.754;13.040;2022-09-20T01:28:08;101879.66;;;7.70;100.00
20696;BME280;10507;52.754;13.040;2022-09-20T01:30:39;101884.94;;;7.72;100.00
20696;BME280;10507;52.754;13.040;2022-09-20T01:33:15;101876.06;;;7.71;100.00
20696;BME280;10507;52.754;13.040;2022-09-20T01:35:46;101874.31;;;7.72;100.00
20696;BME280;10507;52.754;13.040;2022-09-20T01:38:25;101866.34;;;7.72;100.00
20696;BME280;10507;52.754;13.040;2022-09-20T01:41:02;101876.94;;;7.73;100.00
20696;BME280;10507;52.754;13.040;2022-09-20T01:43:34;101885.75;;;7.75;100.00
20696;BME280;10507;52.754;13.040;2022-09-20T01:46:12;101893.69;;;7.78;100.00
20696;BME280;10507;52.754;13.040;2022-09-20T01:48:46;101898.09;;;7.79;100.00
20696;BME280;10507;52.754;13.040;2022-09-20T01:51:53;101921.91;;;7.87;100.00
20696;BME280;10507;52.754;13.040;2022-09-20T01:54:46;101950.16;;;7.93;100.00
20696;BME280;10507;52.754;13.040;2022-09-20T01:57:47;101943.00;;;7.96;100.00
20696;BME280;10507;52.754;13.040;2022-09-20T02:00:26;101964.13;;;8.04;100.00
20696;BME280;10507;52.754;13.040;2022-09-20T02:03:16;101954.34;;;8.04;100.00
20696;BME280;10507;52.754;13.040;2022-09-20T02:06:02;101961.34;;;8.10;100.00
20696;BME280;10507;52.754;13.040;2022-09-20T02:08:54;101948.91;;;8.12;100.00
20696;BME280;10507;52.754;13.040;2022-09-20T02:11:44;101929.38;;;8.11;100.00
20696;BME280;10507;52.754;13.040;2022-09-20T02:14:31;101913.44;;;8.11;100.00
20696;BME280;10507;52.754;13.040;2022-09-20T02:17:10;101915.19;;;8.14;100.00
20696;BME280;10507;52.754;13.040;2022-09-20T02:20:06;101929.28;;;8.18;100.00
20696;BME280;10507;52.754;13.040;2022-09-20T02:22:43;101919.56;;;8.15;100.00
20696;BME280;10507;52.754;13.040;2022-09-20T02:25:33;101915.09;;;8.19;100.00
20696;BME280;10507;52.754;13.040;2022-09-20T02:28:13;101933.63;;;8.22;100.00
20696;BME280;10507;52.754;13.040;2022-09-20T02:30:54;101920.34;;;8.20;100.00
20696;BME280;10507;52.754;13.040;2022-09-20T02:33:41;101928.31;;;8.22;100.00
20696;BME280;10507;52.754;13.040;2022-09-20T02:36:34;101915.03;;;8.20;100.00
20696;BME280;10507;52.754;13.040;2022-09-20T02:39:10;101921.19;;;8.22;100.00
20696;BME280;10507;52.754;13.040;2022-09-20T02:41:52;101919.41;;;8.23;100.00
20696;BME280;10507;52.754;13.040;2022-09-20T02:44:32;101930.97;;;8.23;100.00
20696;BME280;10507;52.754;13.040;2022-09-20T02:47:11;101929.16;;;8.25;100.00
20696;BME280;10507;52.754;13.040;2022-09-20T02:49:54;101935.31;;;8.27;100.00
20696;BME280;10507;52.754;13.040;2022-09-20T02:52:29;101948.53;;;8.30;100.00
20696;BME280;10507;52.754;13.040;2022-09-20T02:55:04;101930.81;;;8.29;100.00
20696;BME280;10507;52.754;13.040;2022-09-20T02:57:41;101928.13;;;8.31;100.00
20696;BME280;10507;52.754;13.040;2022-09-20T03:00:14;101932.50;;;8.35;100.00
20696;BME280;10507;52.754;13.040;2022-09-20T03:02:49;101948.38;;;8.40;100.00
20696;BME280;10507;52.754;13.040;2022-09-20T03:05:29;101934.16;;;8.41;100.00
20696;BME280;10507;52.754;13.040;2022-09-20T03:08:13;101929.66;;;8.44;100.00
20696;BME280;10507;52.754;13.040;2022-09-20T03:10:50;101910.16;;;8.44;100.00
20696;BME280;10507;52.754;13.040;2022-09-20T03:13:28;101907.44;;;8.47;100.00
20696;BME280;10507;52.754;13.040;2022-09-20T03:16:08;101894.97;;;8.49;100.00
20696;BME280;10507;52.754;13.040;2022-09-20T03:18:49;101899.34;;;8.51;100.00
20696;BME280;10507;52.754;13.040;2022-09-20T03:21:30;101894.84;;;8.55;100.00
20696;BME280;10507;52.754;13.040;2022-09-20T03:24:15;101885.09;;;8.54;100.00
20696;BME280;10507;52.754;13.040;2022-09-20T03:26:51;101879.72;;;8.57;100.00
20696;BME280;10507;52.754;13.040;2022-09-20T03:29:32;101880.56;;;8.59;100.00
20696;BME280;10507;52.754;13.040;2022-09-20T03:32:10;101875.19;;;8.61;100.00
20696;BME280;10507;52.754;13.040;2022-09-20T03:34:51;101875.13;;;8.64;100.00
20696;BME280;10507;52.754;13.040;2022-09-20T03:37:43;101838.84;;;8.60;100.00
20696;BME280;10507;52.754;13.040;2022-09-20T03:40:27;101838.84;;;8.60;100.00
20696;BME280;10507;52.754;13.040;2022-09-20T03:43:03;101823.75;;;8.60;100.00
20696;BME280;10507;52.754;13.040;2022-09-20T03:45:55;101809.66;;;8.57;100.00
20696;BME280;10507;52.754;13.040;2022-09-20T03:48:47;101821.94;;;8.61;100.00
20696;BME280;10507;52.754;13.040;2022-09-20T03:51:21;101813.09;;;8.60;100.00
20696;BME280;10507;52.754;13.040;2022-09-20T03:54:14;101821.03;;;8.63;100.00
20696;BME280;10507;52.754;13.040;2022-09-20T03:56:59;101791.78;;;8.60;100.00
20696;BME280;10507;52.754;13.040;2022-09-20T03:59:44;101783.78;;;8.62;100.00
20696;BME280;10507;52.754;13.040;2022-09-20T04:02:32;101789.97;;;8.62;100.00
20696;BME280;10507;52.754;13.040;2022-09-20T04:05:06;101781.16;;;8.60;100.00
20696;BME280;10507;52.754;13.040;2022-09-20T04:07:46;101775.84;;;8.59;100.00
20696;BME280;10507;52.754;13.040;2022-09-20T04:10:35;101755.59;;;8.53;100.00
20696;BME280;10507;52.754;13.040;2022-09-20T04:13:20;101730.03;;;8.46;100.00
20696;BME280;10507;52.754;13.040;2022-09-20T04:16:03;101725.75;;;8.39;100.00
20696;BME280;10507;52.754;13.040;2022-09-20T04:18:36;101723.13;;;8.36;100.00
20696;BME280;10507;52.754;13.040;2022-09-20T04:21:10;101707.31;;;8.29;100.00
20696;BME280;10507;52.754;13.040;2022-09-20T04:23:45;101721.63;;;8.25;100.00
20696;BME280;10507;52.754;13.040;2022-09-20T04:26:21;101711.97;;;8.20;100.00
20696;BME280;10507;52.754;13.040;2022-09-20T04:28:53;101711.22;;;8.15;100.00
20696;BME280;10507;52.754;13.040;2022-09-20T04:31:32;101723.69;;;8.11;100.00
20696;BME280;10507;52.754;13.040;2022-09-20T04:34:04;101718.50;;;8.05;100.00
20696;BME280;10507;52.754;13.040;2022-09-20T04:36:55;101733.69;;;8.01;100.00
20696;BME280;10507;52.754;13.040;2022-09-20T04:39:30;101743.50;;;7.98;100.00
20696;BME280;10507;52.754;13.040;2022-09-20T04:45:36;101776.47;;;7.89;100.00
20696;BME280;10507;52.754;13.040;2022-09-20T04:48:34;101806.63;;;7.88;100.00
20696;BME280;10507;52.754;13.040;2022-09-20T04:51:27;101847.44;;;7.87;100.00
20696;BME280;10507;52.754;13.040;2022-09-20T04:54:28;101859.91;;;7.83;100.00
20696;BME280;10507;52.754;13.040;2022-09-20T04:57:26;101892.72;;;7.82;100.00
20696;BME280;10507;52.754;13.040;2022-09-20T05:00:03;101923.66;;;7.86;100.00
20696;BME280;10507;52.754;13.040;2022-09-20T05:06:02;101982.03;;;7.94;100.00
20696;BME280;10507;52.754;13.040;2022-09-20T05:08:58;102011.22;;;7.97;100.00
20696;BME280;10507;52.754;13.040;2022-09-20T05:11:41;102020.03;;;8.01;100.00
20696;BME280;10507;52.754;13.040;2022-09-20T05:14:27;102022.63;;;8.04;100.00
20696;BME280;10507;52.754;13.040;2022-09-20T05:17:19;102047.34;;;8.10;100.00
20696;BME280;10507;52.754;13.040;2022-09-20T05:23:12;102028.63;;;8.17;100.00
20696;BME280;10507;52.754;13.040;2022-09-20T05:28:55;101976.28;;;8.19;100.00
20696;BME280;10507;52.754;13.040;2022-09-20T05:31:33;101964.63;;;8.23;100.00
20696;BME280;10507;52.754;13.040;2022-09-20T05:34:12;101922.16;;;8.18;100.00
20696;BME280;10507;52.754;13.040;2022-09-20T05:36:48;101913.28;;;8.21;100.00
20696;BME280;10507;52.754;13.040;2022-09-20T05:39:31;101888.44;;;8.20;100.00
20696;BME280;10507;52.754;13.040;2022-09-20T05:42:08;101878.63;;;8.22;100.00
20696;BME280;10507;52.754;13.040;2022-09-20T05:44:50;101880.34;;;8.26;100.00
20696;BME280;10507;52.754;13.040;2022-09-20T05:47:26;101866.09;;;8.29;100.00
20696;BME280;10507;52.754;13.040;2022-09-20T05:50:08;101858.94;;;8.32;100.00
20696;BME280;10507;52.754;13.040;2022-09-20T05:52:50;101826.16;;;8.29;100.00
20696;BME280;10507;52.754;13.040;2022-09-20T05:55:33;101826.16;;;8.30;100.00
20696;BME280;10507;52.754;13.040;2022-09-20T05:58:15;101816.34;;;8.32;100.00
20696;BME280;10507;52.754;13.040;2022-09-20T06:00:52;101815.38;;;8.37;100.00
20696;BME280;10507;52.754;13.040;2022-09-20T06:03:28;101809.06;;;8.42;100.00
20696;BME280;10507;52.754;13.040;2022-09-20T06:06:05;101781.59;;;8.42;100.00
20696;BME280;10507;52.754;13.040;2022-09-20T06:08:55;101761.03;;;8.48;100.00
20696;BME280;10507;52.754;13.040;2022-09-20T06:14:37;101704.16;;;8.52;100.00
20696;BME280;10507;52.754;13.040;2022-09-20T06:17:15;101698.50;;;8.65;100.00
20696;BME280;10507;52.754;13.040;2022-09-20T06:19:54;101664.72;;;8.68;100.00
20696;BME280;10507;52.754;13.040;2022-09-20T06:22:28;101627.41;;;8.70;100.00
20696;BME280;10507;52.754;13.040;2022-09-20T06:25:00;101612.94;;;8.79;100.00
20696;BME280;10507;52.754;13.040;2022-09-20T06:27:33;101585.31;;;8.83;100.00
20696;BME280;10507;52.754;13.040;2022-09-20T06:30:07;101579.56;;;8.98;100.00
20696;BME280;10507;52.754;13.040;2022-09-20T06:32:52;101665.88;;;9.85;100.00
20696;BME280;10507;52.754;13.040;2022-09-20T06:35:21;101570.72;;;10.13;100.00
20696;BME280;10507;52.754;13.040;2022-09-20T06:37:53;101569.28;;;10.80;100.00
20696;BME280;10507;52.754;13.040;2022-09-20T06:40:45;101606.72;;;11.74;100.00
20696;BME280;10507;52.754;13.040;2022-09-20T06:43:34;101591.91;;;13.14;100.00
20696;BME280;10507;52.754;13.040;2022-09-20T06:46:07;101448.56;;;13.76;98.38
20696;BME280;10507;52.754;13.040;2022-09-20T06:48:36;101366.44;;;14.40;93.61
20696;BME280;10507;52.754;13.040;2022-09-20T06:51:06;101267.13;;;14.70;90.05
20696;BME280;10507;52.754;13.040;2022-09-20T06:53:36;101222.81;;;15.38;86.73
20696;BME280;10507;52.754;13.040;2022-09-20T06:56:07;101282.97;;;15.96;84.25
20696;BME280;10507;52.754;13.040;2022-09-20T06:58:35;101224.78;;;16.49;81.41
20696;BME280;10507;52.754;13.040;2022-09-20T07:01:03;101250.13;;;16.74;81.12
20696;BME280;10507;52.754;13.040;2022-09-20T07:03:32;101185.94;;;17.06;79.24
20696;BME280;10507;52.754;13.040;2022-09-20T07:06:00;100940.16;;;16.59;78.71
20696;BME280;10507;52.754;13.040;2022-09-20T07:08:29;101089.59;;;16.55;81.17
20696;BME280;10507;52.754;13.040;2022-09-20T07:11:02;101115.22;;;16.75;80.34
20696;BME280;10507;52.754;13.040;2022-09-20T07:13:29;100944.34;;;16.38;80.04
20696;BME280;10507;52.754;13.040;2022-09-20T07:16:01;100894.09;;;16.62;79.35
20696;BME280;10507;52.754;13.040;2022-09-20T07:18:29;100907.81;;;16.34;81.39
20696;BME280;10507;52.754;13.040;2022-09-20T07:21:00;100857.91;;;15.90;82.21
20696;BME280;10507;52.754;13.040;2022-09-20T07:23:28;100907.66;;;16.10;82.26
20696;BME280;10507;52.754;13.040;2022-09-20T07:25:56;101058.72;;;16.34;82.93
20696;BME280;10507;52.754;13.040;2022-09-20T07:28:26;101048.63;;;16.50;82.31
20696;BME280;10507;52.754;13.040;2022-09-20T07:30:54;100987.16;;;16.55;81.90
20696;BME280;10507;52.754;13.040;2022-09-20T07:33:22;100990.63;;;16.57;82.54
20696;BME280;10507;52.754;13.040;2022-09-20T07:35:51;101009.91;;;16.51;82.81
20696;BME280;10507;52.754;13.040;2022-09-20T07:38:22;100883.44;;;16.23;83.20
20696;BME280;10507;52.754;13.040;2022-09-20T07:40:53;100993.19;;;16.33;83.88
20696;BME280;10507;52.754;13.040;2022-09-20T07:43:22;101030.06;;;16.46;84.08
20696;BME280;10507;52.754;13.040;2022-09-20T07:45:50;100924.84;;;16.21;84.41
20696;BME280;10507;52.754;13.040;2022-09-20T07:48:20;100960.38;;;16.01;85.36
20696;BME280;10507;52.754;13.040;2022-09-20T07:50:51;101075.75;;;16.07;86.59
20696;BME280;10507;52.754;13.040;2022-09-20T07:53:21;101059.41;;;16.10;86.67
20696;BME280;10507;52.754;13.040;2022-09-20T07:55:56;101000.56;;;16.04;86.02
20696;BME280;10507;52.754;13.040;2022-09-20T07:58:24;100920.88;;;15.74;86.98
20696;BME280;10507;52.754;13.040;2022-09-20T08:00:52;101034.88;;;15.88;87.98
20696;BME280;10507;52.754;13.040;2022-09-20T08:03:20;101003.63;;;15.85;87.71
20696;BME280;10507;52.754;13.040;2022-09-20T08:05:48;100958.25;;;15.65;88.20
20696;BME280;10507;52.754;13.040;2022-09-20T08:08:16;101009.91;;;15.71;88.62
20696;BME280;10507;52.754;13.040;2022-09-20T08:10:45;101020.91;;;15.54;89.40
20696;BME280;10507;52.754;13.040;2022-09-20T08:13:14;101015.22;;;15.44;90.34
20696;BME280;10507;52.754;13.040;2022-09-20T08:16:02;101072.03;;;15.54;91.38
20696;BME280;10507;52.754;13.040;2022-09-20T08:18:31;100993.56;;;15.18;91.22
20696;BME280;10507;52.754;13.040;2022-09-20T08:21:02;101025.81;;;15.04;92.05
20696;BME280;10507;52.754;13.040;2022-09-20T08:23:33;101001.94;;;14.85;91.52
20696;BME280;10507;52.754;13.040;2022-09-20T08:26:03;101084.13;;;15.04;92.73
20696;BME280;10507;52.754;13.040;2022-09-20T08:28:33;101002.38;;;14.63;93.53
20696;BME280;10507;52.754;13.040;2022-09-20T08:31:01;101072.19;;;14.79;93.91
20696;BME280;10507;52.754;13.040;2022-09-20T08:33:29;101087.66;;;14.75;94.28
20696;BME280;10507;52.754;13.040;2022-09-20T08:35:57;101097.16;;;14.81;94.43
20696;BME280;10507;52.754;13.040;2022-09-20T08:38:25;101044.31;;;14.66;94.34
20696;BME280;10507;52.754;13.040;2022-09-20T08:41:18;101045.91;;;14.54;94.81
20696;BME280;10507;52.754;13.040;2022-09-20T08:43:50;101081.13;;;14.49;96.09
20696;BME280;10507;52.754;13.040;2022-09-20T08:46:20;101094.28;;;14.54;96.20
20696;BME280;10507;52.754;13.040;2022-09-20T08:48:50;101143.38;;;14.58;96.92
20696;BME280;10507;52.754;13.040;2022-09-20T08:51:19;101157.22;;;14.50;97.83
20696;BME280;10507;52.754;13.040;2022-09-20T08:53:50;101181.50;;;14.64;97.96
20696;BME280;10507;52.754;13.040;2022-09-20T08:56:20;101135.19;;;14.59;97.03
20696;BME280;10507;52.754;13.040;2022-09-20T08:58:49;101182.38;;;14.65;98.00
20696;BME280;10507;52.754;13.040;2022-09-20T09:01:20;101179.13;;;14.74;97.79
20696;BME280;10507;52.754;13.040;2022-09-20T09:03:49;101206.47;;;14.96;97.81
20696;BME280;10507;52.754;13.040;2022-09-20T09:06:19;101179.03;;;15.06;96.30
20696;BME280;10507;52.754;13.040;2022-09-20T09:08:50;101216.19;;;15.29;96.28
20696;BME280;10507;52.754;13.040;2022-09-20T09:11:20;101179.84;;;15.36;95.14
20696;BME280;10507;52.754;13.040;2022-09-20T09:13:52;101156.31;;;15.54;93.66
20696;BME280;10507;52.754;13.040;2022-09-20T09:16:23;101112.41;;;15.54;93.24
20696;BME280;10507;52.754;13.040;2022-09-20T09:19:24;101021.59;;;15.29;91.73
20696;BME280;10507;52.754;13.040;2022-09-20T09:22:00;101121.34;;;15.54;93.22
20696;BME280;10507;52.754;13.040;2022-09-20T09:24:28;101175.34;;;15.66;94.49
20696;BME280;10507;52.754;13.040;2022-09-20T09:27:07;100964.41;;;15.39;91.66
20696;BME280;10507;52.754;13.040;2022-09-20T09:29:49;101041.75;;;15.50;91.92
20696;BME280;10507;52.754;13.040;2022-09-20T09:32:23;101042.34;;;15.41;92.77
20696;BME280;10507;52.754;13.040;2022-09-20T09:34:53;101040.81;;;15.37;92.72
20696;BME280;10507;52.754;13.040;2022-09-20T09:37:25;101066.56;;;15.41;93.32
20696;BME280;10507;52.754;13.040;2022-09-20T09:40:11;101071.25;;;15.52;92.97
20696;BME280;10507;52.754;13.040;2022-09-20T09:42:50;101016.13;;;15.30;93.15
20696;BME280;10507;52.754;13.040;2022-09-20T09:45:28;101058.00;;;15.34;93.81
20696;BME280;10507;52.754;13.040;2022-09-20T09:47:59;101129.88;;;15.61;94.46
20696;BME280;10507;52.754;13.040;2022-09-20T09:50:29;101100.75;;;15.82;92.82
20696;BME280;10507;52.754;13.040;2022-09-20T09:53:04;101045.84;;;15.70;93.13
20696;BME280;10507;52.754;13.040;2022-09-20T09:55:53;101057.91;;;15.92;91.68
20696;BME280;10507;52.754;13.040;2022-09-20T09:58:37;101086.50;;;16.21;91.79
20696;BME280;10507;52.754;13.040;2022-09-20T10:01:18;100990.13;;;16.25;90.01
20696;BME280;10507;52.754;13.040;2022-09-20T10:03:55;100963.75;;;16.30;88.93
20696;BME280;10507;52.754;13.040;2022-09-20T10:06:29;100997.31;;;16.39;89.32
20696;BME280;10507;52.754;13.040;2022-09-20T10:09:12;100962.16;;;16.53;87.70
20696;BME280;10507;52.754;13.040;2022-09-20T10:11:56;100994.81;;;16.49;89.41
20696;BME280;10507;52.754;13.040;2022-09-20T10:14:42;100936.72;;;16.57;87.76
20696;BME280;10507;52.754;13.040;2022-09-20T10:17:28;100897.25;;;16.31;87.82
20696;BME280;10507;52.754;13.040;2022-09-20T10:20:09;100807.59;;;15.77;88.47
20696;BME280;10507;52.754;13.040;2022-09-20T10:22:52;100841.91;;;15.34;90.87
20696;BME280;10507;52.754;13.040;2022-09-20T10:25:49;100920.03;;;15.32;91.64
20696;BME280;10507;52.754;13.040;2022-09-20T10:28:30;100944.84;;;15.09;93.44
20696;BME280;10507;52.754;13.040;2022-09-20T10:31:11;100942.41;;;14.63;95.47
20696;BME280;10507;52.754;13.040;2022-09-20T10:33:59;101046.97;;;14.51;98.28
20696;BME280;10507;52.754;13.040;2022-09-20T10:36:37;101047.47;;;14.28;99.29
20696;BME280;10507;52.754;13.040;2022-09-20T10:39:12;101094.03;;;14.12;100.00
20696;BME280;10507;52.754;13.040;2022-09-20T10:41:50;101104.59;;;14.00;100.00
20696;BME280;10507;52.754;13.040;2022-09-20T10:44:51;101150.78;;;14.06;100.00
20696;BME280;10507;52.754;13.040;2022-09-20T10:47:25;101179.34;;;14.07;100.00
20696;BME280;10507;52.754;13.040;2022-09-20T10:50:05;101233.41;;;14.33;100.00
20696;BME280;10507;52.754;13.040;2022-09-20T10:52:47;101260.91;;;14.70;100.00
20696;BME280;10507;52.754;13.040;2022-09-20T10:55:33;101200.16;;;14.82;99.90
20696;BME280;10507;52.754;13.040;2022-09-20T10:58:26;101221.50;;;15.15;98.72
20696;BME280;10507;52.754;13.040;2022-09-20T11:00:59;101195.38;;;15.17;98.95
20696;BME280;10507;52.754;13.040;2022-09-20T11:03:42;101291.88;;;15.68;99.10
20696;BME280;10507;52.754;13.040;2022-09-20T11:06:19;101218.72;;;16.04;95.96
20696;BME280;10507;52.754;13.040;2022-09-20T11:08:54;101103.25;;;15.71;95.25
20696;BME280;10507;52.754;13.040;2022-09-20T11:11:25;101035.44;;;14.94;97.65
20696;BME280;10507;52.754;13.040;2022-09-20T11:14:03;101097.03;;;14.68;100.00
20696;BME280;10507;52.754;13.040;2022-09-20T11:16:37;101114.06;;;14.37;100.00
20696;BME280;10507;52.754;13.040;2022-09-20T11:19:16;101137.66;;;14.16;100.00
20696;BME280;10507;52.754;13.040;2022-09-20T11:21:51;101148.41;;;14.00;100.00
20696;BME280;10507;52.754;13.040;2022-09-20T11:24:27;101200.22;;;14.02;100.00
20696;BME280;10507;52.754;13.040;2022-09-20T11:26:59;101243.44;;;14.13;100.00
20696;BME280;10507;52.754;13.040;2022-09-20T11:29:32;101267.88;;;14.25;100.00
20696;BME280;10507;52.754;13.040;2022-09-20T11:32:05;101275.75;;;14.28;100.00
20696;BME280;10507;52.754;13.040;2022-09-20T11:34:48;101191.19;;;14.19;100.00
20696;BME280;10507;52.754;13.040;2022-09-20T11:37:18;101198.66;;;13.98;100.00
20696;BME280;10507;52.754;13.040;2022-09-20T11:39:50;101236.22;;;13.98;100.00
20696;BME280;10507;52.754;13.040;2022-09-20T11:42:22;101226.47;;;13.97;100.00
20696;BME280;10507;52.754;13.040;2022-09-20T11:44:53;101258.78;;;14.11;100.00
20696;BME280;10507;52.754;13.040;2022-09-20T11:47:22;101302.66;;;14.44;100.00
20696;BME280;10507;52.754;13.040;2022-09-20T11:50:59;101360.88;;;14.76;100.00
20696;BME280;10507;52.754;13.040;2022-09-20T11:53:41;101327.75;;;14.76;100.00
20696;BME280;10507;52.754;13.040;2022-09-20T11:56:16;101291.19;;;14.58;100.00
20696;BME280;10507;52.754;13.040;2022-09-20T11:58:47;101254.72;;;14.36;100.00
20696;BME280;10507;52.754;13.040;2022-09-20T12:01:24;101161.50;;;14.06;100.00
20696;BME280;10507;52.754;13.040;2022-09-20T12:03:55;100998.47;;;13.46;98.88
20696;BME280;10507;52.754;13.040;2022-09-20T12:06:45;100928.50;;;12.70;98.40
20696;BME280;10507;52.754;13.040;2022-09-20T12:09:22;100973.66;;;12.27;100.00
20696;BME280;10507;52.754;13.040;2022-09-20T12:11:52;101050.19;;;12.14;100.00
20696;BME280;10507;52.754;13.040;2022-09-20T12:14:23;101081.81;;;11.86;100.00
20696;BME280;10507;52.754;13.040;2022-09-20T12:16:53;101088.06;;;11.68;100.00
20696;BME280;10507;52.754;13.040;2022-09-20T12:19:36;101130.91;;;11.67;100.00
20696;BME280;10507;52.754;13.040;2022-09-20T12:22:27;101160.53;;;11.62;100.00
20696;BME280;10507;52.754;13.040;2022-09-20T12:27:58;101219.38;;;11.62;100.00
20696;BME280;10507;52.754;13.040;2022-09-20T12:30:26;101242.44;;;11.64;100.00
20696;BME280;10507;52.754;13.040;2022-09-20T12:32:57;101282.91;;;11.77;100.00
20696;BME280;10507;52.754;13.040;2022-09-20T12:35:51;101268.25;;;11.86;100.00
20696;BME280;10507;52.754;13.040;2022-09-20T12:38:35;101226.91;;;11.93;100.00
20696;BME280;10507;52.754;13.040;2022-09-20T12:41:10;101228.13;;;12.05;100.00
20696;BME280;10507;52.754;13.040;2022-09-20T12:44:00;101272.00;;;12.40;100.00
20696;BME280;10507;52.754;13.040;2022-09-20T12:46:32;101262.91;;;12.62;100.00
20696;BME280;10507;52.754;13.040;2022-09-20T12:49:40;101311.81;;;13.03;100.00
20696;BME280;10507;52.754;13.040;2022-09-20T12:52:46;101326.53;;;13.31;100.00
20696;BME280;10507;52.754;13.040;2022-09-20T12:55:52;101263.31;;;13.43;100.00
20696;BME280;10507;52.754;13.040;2022-09-20T12:58:24;101255.88;;;13.65;100.00
20696;BME280;10507;52.754;13.040;2022-09-20T13:01:29;101244.09;;;13.85;99.24
20696;BME280;10507;52.754;13.040;2022-09-20T13:07:25;101124.97;;;14.04;95.08
20696;BME280;10507;52.754;13.040;2022-09-20T13:10:01;101031.91;;;13.72;94.01
20696;BME280;10507;52.754;13.040;2022-09-20T13:12:38;101045.81;;;13.79;94.27
20696;BME280;10507;52.754;13.040;2022-09-20T13:15:15;101038.81;;;13.77;93.81
20696;BME280;10507;52.754;13.040;2022-09-20T13:17:45;101041.91;;;13.85;93.97
20696;BME280;10507;52.754;13.040;2022-09-20T13:20:19;101003.81;;;13.78;93.41
20696;BME280;10507;52.754;13.040;2022-09-20T13:22:49;101005.06;;;13.72;93.32
20696;BME280;10507;52.754;13.040;2022-09-20T13:25:25;100995.44;;;13.68;93.11
20696;BME280;10507;52.754;13.040;2022-09-20T13:28:05;100992.75;;;13.68;93.40
20696;BME280;10507;52.754;13.040;2022-09-20T13:30:33;101048.66;;;13.76;94.53
20696;BME280;10507;52.754;13.040;2022-09-20T13:33:16;101004.81;;;13.61;93.70
20696;BME280;10507;52.754;13.040;2022-09-20T13:35:48;101028.44;;;13.70;94.40
20696;BME280;10507;52.754;13.040;2022-09-20T13:38:17;100997.41;;;13.81;92.98
20696;BME280;10507;52.754;13.040;2022-09-20T13:40:49;100979.13;;;13.87;92.61
20696;BME280;10507;52.754;13.040;2022-09-20T13:43:25;100911.63;;;13.79;90.87
20696;BME280;10507;52.754;13.040;2022-09-20T13:45:55;100901.69;;;13.81;90.67
20696;BME280;10507;52.754;13.040;2022-09-20T13:48:24;100947.34;;;13.96;91.29
20696;BME280;10507;52.754;13.040;2022-09-20T13:50:53;100919.13;;;13.88;90.71
20696;BME280;10507;52.754;13.040;2022-09-20T13:53:22;100970.66;;;13.95;91.79